createdAt,value
2023-03-19T00:00:43.590Z,6.18
2023-03-19T00:03:10.579Z,6.57
2023-03-19T00:05:37.614Z,5.90
2023-03-19T00:08:04.703Z,5.60
2023-03-19T00:10:31.458Z,6.75
2023-03-19T00:12:58.193Z,6.63
2023-03-19T00:15:25.001Z,6.38
2023-03-19T00:17:52.116Z,6.05
2023-03-19T00:20:20.367Z,7.63
2023-03-19T00:22:47.165Z,8.15
2023-03-19T00:25:13.977Z,8.27
2023-03-19T00:27:40.782Z,8.52
2023-03-19T00:30:09.006Z,6.78
2023-03-19T00:32:36.686Z,7.90
2023-03-19T00:35:06.263Z,7.28
2023-03-19T00:37:33.606Z,8.63
2023-03-19T00:40:00.330Z,7.90
2023-03-19T00:42:27.089Z,7.88
2023-03-19T00:44:53.845Z,8.70
2023-03-19T00:47:21.256Z,5.80
2023-03-19T00:49:48.100Z,7.03
2023-03-19T00:52:15.349Z,7.47
2023-03-19T00:54:45.416Z,7.72
2023-03-19T00:57:12.212Z,7.78
2023-03-19T00:59:38.898Z,8.48
2023-03-19T01:02:06.015Z,7.32
2023-03-19T01:04:32.819Z,8.70
2023-03-19T01:09:26.579Z,9.75
2023-03-19T01:11:53.510Z,8.82
2023-03-19T01:14:20.540Z,9.15
2023-03-19T01:16:47.346Z,8.63
2023-03-19T01:19:14.352Z,9.23
2023-03-19T01:21:43.096Z,9.68
2023-03-19T01:24:10.723Z,8.55
2023-03-19T01:26:37.503Z,7.97
2023-03-19T01:29:04.401Z,7.85
2023-03-19T01:31:31.272Z,8.35
2023-03-19T01:33:58.124Z,9.07
2023-03-19T01:36:24.893Z,8.93
2023-03-19T01:38:51.832Z,9.57
2023-03-19T01:41:18.599Z,9.07
2023-03-19T01:43:46.333Z,10.48
2023-03-19T01:46:31.678Z,10.38
2023-03-19T01:49:06.297Z,10.98
2023-03-19T01:51:39.677Z,10.07
2023-03-19T01:54:12.213Z,9.77
2023-03-19T01:56:41.936Z,10.38
2023-03-19T01:59:30.680Z,8.68
2023-03-19T02:02:15.566Z,10.88
2023-03-19T02:04:44.783Z,9.48
2023-03-19T02:07:12.515Z,9.65
2023-03-19T02:09:41.087Z,10.02
2023-03-19T02:12:09.054Z,10.35
2023-03-19T02:14:36.800Z,9.20
2023-03-19T02:17:05.633Z,9.35
2023-03-19T02:19:37.832Z,10.50
2023-03-19T02:24:39.772Z,9.85
2023-03-19T02:27:09.216Z,11.07
2023-03-19T02:29:36.064Z,10.05
2023-03-19T02:32:03.796Z,10.48
2023-03-19T02:34:35.318Z,9.70
2023-03-19T02:37:10.819Z,9.35
2023-03-19T02:39:49.532Z,10.05
2023-03-19T02:42:18.677Z,9.73
2023-03-19T02:44:46.267Z,9.45
2023-03-19T02:47:13.282Z,9.73
2023-03-19T02:49:40.213Z,9.73
2023-03-19T02:52:07.253Z,7.90
2023-03-19T02:54:33.967Z,9.60
2023-03-19T02:57:01.094Z,9.68
2023-03-19T02:59:27.832Z,9.55
2023-03-19T03:01:54.575Z,10.23
2023-03-19T03:04:21.752Z,9.20
2023-03-19T03:06:48.578Z,9.40
2023-03-19T03:09:15.327Z,10.18
2023-03-19T03:11:42.244Z,9.40
2023-03-19T03:14:09.100Z,10.13
2023-03-19T03:16:36.084Z,10.20
2023-03-19T03:19:02.825Z,10.23
2023-03-19T03:21:29.678Z,10.13
2023-03-19T03:23:56.444Z,10.60
2023-03-19T03:26:23.482Z,10.50
2023-03-19T03:28:50.208Z,9.57
2023-03-19T03:31:17.158Z,10.88
2023-03-19T03:33:43.970Z,10.93
2023-03-19T03:36:10.903Z,11.68
2023-03-19T03:38:38.097Z,10.98
2023-03-19T03:41:04.954Z,12.07
2023-03-19T03:43:31.715Z,12.25
2023-03-19T03:45:58.576Z,13.40
2023-03-19T03:48:26.012Z,11.07
2023-03-19T03:50:52.796Z,13.48
2023-03-19T03:53:19.698Z,12.75
2023-03-19T03:55:46.593Z,12.25
2023-03-19T03:58:13.314Z,10.52
2023-03-19T04:00:40.387Z,9.90
2023-03-19T04:03:07.250Z,11.10
2023-03-19T04:05:34.236Z,11.63
2023-03-19T04:08:01.307Z,10.68
2023-03-19T04:10:28.079Z,11.38
2023-03-19T04:12:54.832Z,10.43
2023-03-19T04:15:21.763Z,11.68
2023-03-19T04:17:48.856Z,11.45
2023-03-19T04:20:18.086Z,11.07
2023-03-19T04:22:45.386Z,10.65
2023-03-19T04:25:12.250Z,10.32
2023-03-19T04:27:39.012Z,9.73
2023-03-19T04:30:06.270Z,9.90
2023-03-19T04:32:33.711Z,9.70
2023-03-19T04:35:00.745Z,9.75
2023-03-19T04:37:27.743Z,11.57
2023-03-19T04:39:54.746Z,11.15
2023-03-19T04:42:21.696Z,10.13
2023-03-19T04:44:48.670Z,10.65
2023-03-19T04:47:15.551Z,10.05
2023-03-19T04:49:42.470Z,10.13
2023-03-19T04:52:09.486Z,11.65
2023-03-19T04:54:36.313Z,10.65
2023-03-19T04:57:03.066Z,9.48
2023-03-19T04:59:29.905Z,10.27
2023-03-19T05:01:56.800Z,8.93
2023-03-19T05:04:24.066Z,8.43
2023-03-19T05:06:51.228Z,8.63
2023-03-19T05:09:17.959Z,8.27
2023-03-19T05:11:44.715Z,8.38
2023-03-19T05:14:11.538Z,8.02
2023-03-19T05:16:38.890Z,8.10
2023-03-19T05:19:05.757Z,8.65
2023-03-19T05:21:32.772Z,7.57
2023-03-19T05:23:59.716Z,7.28
2023-03-19T05:26:26.588Z,7.68
2023-03-19T05:28:53.336Z,6.63
2023-03-19T05:31:20.170Z,7.88
2023-03-19T05:33:46.964Z,6.22
2023-03-19T05:36:13.781Z,5.57
2023-03-19T05:38:40.792Z,5.35
2023-03-19T05:41:08.140Z,6.45
2023-03-19T05:43:34.934Z,5.22
2023-03-19T05:46:01.796Z,5.53
2023-03-19T05:48:28.542Z,5.22
2023-03-19T05:50:55.373Z,6.40
2023-03-19T05:53:23.153Z,5.07
2023-03-19T05:55:49.985Z,5.18
2023-03-19T05:58:17.038Z,5.40
2023-03-19T06:00:43.885Z,5.80
2023-03-19T06:03:11.138Z,5.53
2023-03-19T06:05:38.942Z,5.07
2023-03-19T06:08:06.320Z,5.85
2023-03-19T06:10:35.951Z,5.38
2023-03-19T06:13:03.096Z,6.13
2023-03-19T06:15:29.833Z,5.90
2023-03-19T06:17:56.594Z,5.93
2023-03-19T06:20:23.431Z,4.88
2023-03-19T06:22:50.152Z,4.85
2023-03-19T06:25:19.983Z,5.00
2023-03-19T06:27:46.758Z,5.40
2023-03-19T06:30:14.388Z,4.50
2023-03-19T06:32:41.846Z,4.80
2023-03-19T06:35:09.195Z,4.05
2023-03-19T06:37:36.536Z,5.28
2023-03-19T06:40:05.059Z,5.13
2023-03-19T06:42:32.152Z,4.82
2023-03-19T06:44:58.998Z,4.63
2023-03-19T06:47:26.172Z,4.15
2023-03-19T06:49:52.951Z,5.15
2023-03-19T06:52:19.855Z,4.90
2023-03-19T06:54:46.716Z,4.88
2023-03-19T06:57:13.481Z,4.55
2023-03-19T06:59:40.308Z,4.90
2023-03-19T07:02:09.029Z,4.28
2023-03-19T07:04:36.795Z,5.25
2023-03-19T07:07:05.891Z,4.85
2023-03-19T07:09:32.679Z,4.60
2023-03-19T07:11:59.474Z,4.07
2023-03-19T07:14:26.425Z,4.30
2023-03-19T07:16:53.327Z,5.10
2023-03-19T07:19:20.657Z,4.50
2023-03-19T07:21:47.517Z,5.30
2023-03-19T07:24:14.598Z,4.80
2023-03-19T07:26:42.383Z,4.80
2023-03-19T07:29:09.143Z,4.15
2023-03-19T07:31:36.190Z,4.45
2023-03-19T07:34:03.514Z,4.95
2023-03-19T07:36:31.124Z,4.68
2023-03-19T07:38:57.992Z,4.95
2023-03-19T07:41:24.944Z,4.75
2023-03-19T07:43:51.783Z,5.22
2023-03-19T07:46:18.841Z,5.18
2023-03-19T07:48:45.932Z,4.80
2023-03-19T07:51:13.122Z,4.85
2023-03-19T07:53:39.937Z,4.35
2023-03-19T07:56:07.172Z,4.85
2023-03-19T07:58:34.061Z,4.90
2023-03-19T08:01:00.777Z,4.90
2023-03-19T08:03:27.484Z,5.07
2023-03-19T08:05:56.926Z,5.38
2023-03-19T08:08:23.803Z,5.20
2023-03-19T08:10:53.050Z,4.53
2023-03-19T08:13:19.805Z,5.05
2023-03-19T08:15:46.639Z,6.45
2023-03-19T08:18:13.712Z,5.20
2023-03-19T08:20:40.482Z,5.13
2023-03-19T08:23:07.334Z,5.30
2023-03-19T08:25:34.101Z,3.92
2023-03-19T08:28:01.413Z,5.20
2023-03-19T08:30:28.663Z,4.70
2023-03-19T08:32:55.753Z,4.35
2023-03-19T08:35:22.994Z,4.15
2023-03-19T08:37:49.773Z,4.43
2023-03-19T08:40:16.590Z,4.57
2023-03-19T08:42:45.199Z,5.10
2023-03-19T08:45:13.637Z,3.92
2023-03-19T08:47:40.850Z,5.38
2023-03-19T08:50:08.391Z,4.80
2023-03-19T08:52:35.316Z,5.07
2023-03-19T08:55:02.218Z,5.03
2023-03-19T08:57:31.118Z,5.32
2023-03-19T08:59:58.488Z,4.72
2023-03-19T09:02:25.641Z,4.70
2023-03-19T09:04:52.555Z,5.22
2023-03-19T09:07:19.475Z,5.38
2023-03-19T09:09:46.440Z,4.57
2023-03-19T09:12:15.799Z,4.40
2023-03-19T09:14:43.279Z,4.38
2023-03-19T09:17:11.252Z,4.78
2023-03-19T09:19:38.471Z,3.55
2023-03-19T09:22:06.446Z,4.13
2023-03-19T09:24:33.200Z,4.15
2023-03-19T09:26:59.939Z,3.92
2023-03-19T09:29:27.034Z,4.32
2023-03-19T09:31:53.909Z,4.38
2023-03-19T09:34:20.724Z,3.75
2023-03-19T09:36:47.494Z,4.60
2023-03-19T09:39:14.325Z,3.38
2023-03-19T09:42:00.198Z,2.88
2023-03-19T09:44:34.788Z,3.15
2023-03-19T09:47:24.036Z,3.40
2023-03-19T09:49:52.829Z,3.05
2023-03-19T09:52:39.054Z,2.45
2023-03-19T09:55:11.662Z,2.65
2023-03-19T09:57:39.641Z,2.40
2023-03-19T10:00:24.559Z,2.33
2023-03-19T10:03:01.947Z,2.55
2023-03-19T10:06:02.128Z,2.42
2023-03-19T10:08:42.145Z,2.72
2023-03-19T10:11:38.039Z,1.95
2023-03-19T10:14:11.354Z,2.20
2023-03-19T10:16:41.978Z,3.05
2023-03-19T10:19:12.737Z,2.13
2023-03-19T10:21:48.326Z,2.25
2023-03-19T10:24:31.429Z,1.65
2023-03-19T10:27:09.186Z,2.00
2023-03-19T10:29:36.782Z,1.80
2023-03-19T10:32:12.135Z,1.70
2023-03-19T10:34:43.811Z,2.13
2023-03-19T10:37:17.787Z,2.08
2023-03-19T10:39:45.841Z,1.95
2023-03-19T10:42:21.459Z,2.15
2023-03-19T10:44:56.631Z,1.83
2023-03-19T10:47:26.468Z,1.88
2023-03-19T10:49:53.618Z,1.88
2023-03-19T10:52:28.602Z,2.00
2023-03-19T10:55:02.338Z,1.90
2023-03-19T10:57:31.921Z,1.67
2023-03-19T11:00:06.284Z,2.17
2023-03-19T11:02:33.554Z,1.85
2023-03-19T11:05:31.962Z,1.70
2023-03-19T11:08:07.210Z,1.77
2023-03-19T11:10:36.072Z,1.67
2023-03-19T11:13:17.584Z,1.70
2023-03-19T11:18:24.127Z,1.88
2023-03-19T11:21:06.181Z,1.92
2023-03-19T11:26:06.218Z,1.60
2023-03-19T11:28:33.853Z,1.73
2023-03-19T11:31:15.411Z,1.35
2023-03-19T11:34:17.734Z,2.13
2023-03-19T11:36:56.931Z,1.92
2023-03-19T11:39:34.862Z,1.42
2023-03-19T11:42:32.092Z,1.80
2023-03-19T11:45:20.776Z,2.30
2023-03-19T11:48:15.609Z,1.50
2023-03-19T11:50:58.610Z,1.73
2023-03-19T11:53:35.979Z,1.90
2023-03-19T11:56:33.433Z,2.33
2023-03-19T11:59:28.267Z,2.03
2023-03-19T12:02:00.794Z,2.25
2023-03-19T12:04:37.435Z,1.92
2023-03-19T12:07:22.249Z,1.83
2023-03-19T12:10:07.071Z,2.00
2023-03-19T12:12:37.485Z,2.17
2023-03-19T12:15:21.177Z,1.70
2023-03-19T12:18:15.925Z,2.00
2023-03-19T12:21:05.370Z,2.25
2023-03-19T12:23:42.969Z,1.55
2023-03-19T12:26:34.866Z,1.90
2023-03-19T12:29:17.398Z,2.13
2023-03-19T12:32:06.209Z,2.25
2023-03-19T12:34:47.901Z,2.08
2023-03-19T12:37:21.389Z,2.30
2023-03-19T12:40:17.741Z,1.80
2023-03-19T12:42:44.499Z,1.77
2023-03-19T12:45:36.378Z,2.20
2023-03-19T12:48:18.226Z,1.77
2023-03-19T12:50:50.263Z,2.05
2023-03-19T12:53:41.777Z,1.98
2023-03-19T12:56:19.963Z,2.17
2023-03-19T12:59:10.229Z,2.55
2023-03-19T13:01:51.264Z,1.92
2023-03-19T13:04:25.925Z,2.33
2023-03-19T13:07:15.314Z,2.58
2023-03-19T13:10:09.174Z,2.50
2023-03-19T13:12:38.640Z,2.35
2023-03-19T13:15:19.721Z,2.30
2023-03-19T13:18:06.298Z,2.47
2023-03-19T13:21:04.234Z,3.03
2023-03-19T13:23:35.077Z,2.42
2023-03-19T13:26:06.256Z,2.70
2023-03-19T13:28:35.695Z,2.60
2023-03-19T13:31:19.359Z,2.67
2023-03-19T13:34:12.436Z,1.88
2023-03-19T13:36:39.730Z,2.13
2023-03-19T13:39:18.336Z,2.53
2023-03-19T13:41:52.550Z,2.65
2023-03-19T13:44:22.364Z,2.60
2023-03-19T13:46:49.912Z,2.97
2023-03-19T13:49:19.776Z,2.45
2023-03-19T13:51:49.425Z,2.75
2023-03-19T13:54:23.121Z,2.35
2023-03-19T13:57:07.742Z,3.22
2023-03-19T13:59:35.089Z,3.17
2023-03-19T14:02:24.182Z,2.60
2023-03-19T14:04:58.026Z,2.75
2023-03-19T14:07:27.454Z,4.03
2023-03-19T14:09:57.572Z,2.83
2023-03-19T14:12:34.981Z,3.08
2023-03-19T14:15:07.389Z,3.13
2023-03-19T14:17:38.120Z,2.60
2023-03-19T14:20:12.581Z,2.83
2023-03-19T14:23:11.456Z,3.03
2023-03-19T14:25:56.854Z,3.08
2023-03-19T14:28:36.312Z,2.60
2023-03-19T14:31:05.461Z,2.55
2023-03-19T14:33:45.775Z,4.05
2023-03-19T14:36:18.634Z,3.25
2023-03-19T14:39:01.881Z,2.58
2023-03-19T14:41:34.908Z,2.75
2023-03-19T14:44:26.483Z,3.20
2023-03-19T14:47:21.186Z,2.95
2023-03-19T14:50:11.406Z,3.00
2023-03-19T14:53:14.617Z,3.28
2023-03-19T14:55:42.472Z,2.78
2023-03-19T14:58:12.168Z,2.85
2023-03-19T15:00:52.063Z,3.17
2023-03-19T15:03:34.880Z,2.80
2023-03-19T15:06:04.384Z,3.25
2023-03-19T15:08:33.526Z,2.70
2023-03-19T15:11:37.236Z,2.45
2023-03-19T15:14:03.919Z,2.70
2023-03-19T15:16:59.596Z,2.40
2023-03-19T15:19:29.749Z,3.20
2023-03-19T15:22:19.550Z,2.47
2023-03-19T15:24:46.999Z,2.78
2023-03-19T15:27:21.400Z,2.65
2023-03-19T15:29:50.703Z,2.60
2023-03-19T15:33:02.849Z,2.65
2023-03-19T15:35:36.000Z,2.95
2023-03-19T15:38:08.940Z,2.72
2023-03-19T15:40:37.139Z,2.67
2023-03-19T15:43:04.149Z,2.55
2023-03-19T15:45:35.613Z,3.15
2023-03-19T15:48:28.576Z,3.72
2023-03-19T15:51:00.160Z,2.80
2023-03-19T15:53:30.188Z,2.38
2023-03-19T15:55:57.429Z,2.88
2023-03-19T15:58:27.931Z,3.00
2023-03-19T16:00:55.710Z,3.10
2023-03-19T16:03:41.715Z,2.88
2023-03-19T16:06:19.672Z,2.90
2023-03-19T16:08:53.466Z,2.55
2023-03-19T16:11:38.331Z,2.40
2023-03-19T16:14:15.271Z,2.58
2023-03-19T16:16:45.362Z,2.50
2023-03-19T16:19:32.387Z,2.47
2023-03-19T16:22:00.710Z,2.03
2023-03-19T16:24:39.045Z,2.22
2023-03-19T16:27:11.684Z,1.63
2023-03-19T16:29:41.984Z,2.97
2023-03-19T16:32:22.079Z,2.30
2023-03-19T16:34:53.247Z,2.28
2023-03-19T16:37:31.580Z,2.65
2023-03-19T16:40:16.148Z,3.35
2023-03-19T16:42:45.965Z,3.08
2023-03-19T16:45:16.164Z,2.50
2023-03-19T16:47:51.267Z,3.75
2023-03-19T16:50:20.213Z,3.28
2023-03-19T16:52:48.026Z,3.80
2023-03-19T16:55:32.449Z,4.60
2023-03-19T16:58:03.625Z,5.10
2023-03-19T17:00:32.353Z,3.60
2023-03-19T17:02:59.888Z,3.50
2023-03-19T17:05:28.469Z,3.05
2023-03-19T17:07:55.880Z,3.20
2023-03-19T17:10:26.704Z,3.42
2023-03-19T17:15:38.246Z,3.47
2023-03-19T17:18:17.204Z,3.90
2023-03-19T17:20:52.268Z,3.40
2023-03-19T17:23:19.182Z,3.40
2023-03-19T17:25:45.962Z,3.83
2023-03-19T17:28:12.784Z,4.22
2023-03-19T17:30:39.799Z,3.95
2023-03-19T17:33:06.772Z,3.72
2023-03-19T17:35:34.365Z,4.03
2023-03-19T17:38:01.469Z,3.33
2023-03-19T17:40:28.299Z,3.45
2023-03-19T17:42:56.363Z,3.63
2023-03-19T17:45:29.712Z,4.30
2023-03-19T17:47:58.151Z,4.25
2023-03-19T17:50:28.755Z,3.60
2023-03-19T17:52:55.653Z,2.90
2023-03-19T17:55:30.188Z,3.45
2023-03-19T17:57:57.025Z,2.17
2023-03-19T18:00:24.900Z,2.35
2023-03-19T18:02:54.091Z,2.05
2023-03-19T18:05:25.722Z,2.38
2023-03-19T18:07:55.694Z,2.60
2023-03-19T18:10:29.705Z,2.67
2023-03-19T18:12:59.935Z,6.20
2023-03-19T18:15:29.740Z,2.60
2023-03-19T18:17:58.736Z,1.90
2023-03-19T18:20:29.279Z,2.53
2023-03-19T18:22:56.046Z,2.67
2023-03-19T18:25:25.295Z,3.45
2023-03-19T18:27:52.513Z,3.15
2023-03-19T18:30:22.579Z,3.28
2023-03-19T18:32:56.265Z,2.70
2023-03-19T18:35:28.777Z,2.53
2023-03-19T18:37:56.456Z,3.13
2023-03-19T18:40:26.327Z,3.83
2023-03-19T18:42:53.463Z,2.78
2023-03-19T18:45:21.326Z,2.70
2023-03-19T18:47:49.132Z,2.90
2023-03-19T18:50:16.671Z,3.22
2023-03-19T18:52:47.182Z,2.90
2023-03-19T18:55:14.792Z,3.17
2023-03-19T18:57:52.820Z,3.88
2023-03-19T19:00:29.520Z,4.30
2023-03-19T19:02:56.657Z,3.97
2023-03-19T19:05:27.644Z,4.20
2023-03-19T19:07:59.718Z,3.42
2023-03-19T19:12:56.769Z,4.03
2023-03-19T19:15:28.138Z,3.90
2023-03-19T19:17:54.940Z,4.68
2023-03-19T19:20:24.531Z,4.22
2023-03-19T19:22:52.217Z,4.25
2023-03-19T19:25:27.287Z,4.43
2023-03-19T19:28:06.209Z,5.13
2023-03-19T19:30:33.159Z,3.30
2023-03-19T19:33:00.397Z,2.88
2023-03-19T19:35:28.326Z,2.17
2023-03-19T19:37:55.549Z,2.72
2023-03-19T19:40:29.520Z,2.92
2023-03-19T19:42:56.695Z,2.83
2023-03-19T19:45:28.981Z,3.55
2023-03-19T19:47:56.726Z,3.33
2023-03-19T19:50:25.436Z,3.22
2023-03-19T19:52:52.698Z,3.95
2023-03-19T19:55:19.606Z,5.88
2023-03-19T19:57:46.900Z,4.32
2023-03-19T20:00:23.156Z,4.65
2023-03-19T20:02:50.886Z,6.28
2023-03-19T20:05:18.416Z,3.35
2023-03-19T20:07:45.525Z,3.72
2023-03-19T20:10:13.043Z,3.65
2023-03-19T20:12:44.599Z,3.92
2023-03-19T20:15:19.958Z,3.70
2023-03-19T20:17:47.257Z,7.45
2023-03-19T20:20:28.505Z,6.10
2023-03-19T20:22:56.588Z,4.88
2023-03-19T20:25:27.443Z,7.78
2023-03-19T20:27:59.768Z,5.25
2023-03-19T20:30:37.095Z,3.95
2023-03-19T20:33:04.590Z,4.20
2023-03-19T20:35:34.822Z,3.70
2023-03-19T20:38:03.927Z,4.32
2023-03-19T20:40:52.191Z,3.33
2023-03-19T20:43:29.817Z,3.70
2023-03-19T20:45:58.393Z,3.08
2023-03-19T20:48:27.537Z,3.05
2023-03-19T20:50:55.433Z,3.05
2023-03-19T20:53:22.294Z,3.50
2023-03-19T20:55:49.921Z,3.55
2023-03-19T20:58:21.854Z,4.15
2023-03-19T21:00:48.584Z,3.33
2023-03-19T21:03:22.315Z,3.60
2023-03-19T21:05:52.780Z,3.35
2023-03-19T21:08:28.971Z,3.85
2023-03-19T21:10:55.830Z,3.38
2023-03-19T21:13:22.829Z,4.05
2023-03-19T21:15:49.755Z,3.85
2023-03-19T21:18:17.075Z,3.92
2023-03-19T21:20:46.501Z,3.88
2023-03-19T21:23:35.410Z,3.83
2023-03-19T21:26:22.762Z,4.43
2023-03-19T21:28:52.938Z,4.22
2023-03-19T21:31:20.656Z,5.13
2023-03-19T21:33:49.311Z,4.43
2023-03-19T21:36:16.831Z,3.70
2023-03-19T21:38:43.927Z,4.93
2023-03-19T21:41:20.213Z,5.07
2023-03-19T21:43:54.248Z,5.13
2023-03-19T21:46:27.931Z,6.28
2023-03-19T21:48:56.319Z,5.32
2023-03-19T21:51:25.124Z,5.03
2023-03-19T21:53:51.945Z,6.03
2023-03-19T21:56:40.666Z,5.20
2023-03-19T21:59:14.199Z,4.68
2023-03-19T22:01:41.202Z,6.10
2023-03-19T22:04:08.316Z,5.43
2023-03-19T22:06:36.478Z,4.68
2023-03-19T22:09:04.230Z,5.20
2023-03-19T22:11:35.336Z,4.95
2023-03-19T22:14:07.875Z,4.83
2023-03-19T22:16:34.668Z,5.20
2023-03-19T22:19:01.798Z,5.32
2023-03-19T22:21:30.533Z,4.40
2023-03-19T22:23:57.299Z,4.68
2023-03-19T22:26:42.753Z,5.50
2023-03-19T22:29:22.766Z,4.47
2023-03-19T22:31:51.797Z,5.28
2023-03-19T22:34:21.567Z,4.93
2023-03-19T22:36:48.563Z,4.75
2023-03-19T22:39:15.700Z,5.45
2023-03-19T22:41:45.876Z,4.78
2023-03-19T22:44:29.260Z,5.32
2023-03-19T22:46:58.567Z,4.82
2023-03-19T22:49:26.490Z,4.07
2023-03-19T22:51:55.216Z,4.95
2023-03-19T22:54:25.401Z,5.15
2023-03-19T22:56:52.164Z,4.32
2023-03-19T22:59:18.895Z,4.43
2023-03-19T23:01:47.637Z,4.10
2023-03-19T23:04:21.120Z,5.10
2023-03-19T23:06:48.449Z,4.60
2023-03-19T23:09:24.692Z,4.20
2023-03-19T23:11:52.675Z,4.07
2023-03-19T23:14:29.739Z,3.90
2023-03-19T23:16:59.989Z,4.82
2023-03-19T23:19:37.441Z,4.60
2023-03-19T23:22:06.856Z,3.53
2023-03-19T23:24:34.245Z,5.60
2023-03-19T23:27:02.335Z,4.63
2023-03-19T23:29:34.335Z,5.13
2023-03-19T23:32:01.412Z,4.15
2023-03-19T23:34:35.353Z,4.57
2023-03-19T23:37:06.981Z,4.60
2023-03-19T23:39:33.708Z,5.05
2023-03-19T23:42:00.643Z,5.43
2023-03-19T23:44:29.177Z,5.63
2023-03-19T23:47:00.956Z,5.72
2023-03-19T23:49:32.311Z,5.93
2023-03-19T23:52:00.428Z,5.13
2023-03-19T23:54:28.864Z,4.93
2023-03-19T23:56:59.643Z,5.95
2023-03-19T23:59:29.455Z,5.85
